Fredonia, Kentucky
Current Conditions -  °F | °C
As of 2:35 AM on Sunday 23 Nov 2014 (Local Time) from K5M9 Reporting Station
Broken Clouds Broken Clouds  
Wind Chill: 51°   Ceiling: 2300
Heat Index: 51°   Visibility: 10mi
Dew Point: 42°   Wind: 7mph
Humidity: 73%   Direction: 160°SSE
Pressure: 29.93"   Gusts: NA
Location:  37.21°N, 88.06°W
Report Text: K5M9 230835Z AUTO 16006KT 10SM BKN023 10/06 A2993 RMK AO2 T01040057
Loading
Personal Weather Stations






























Interactive Weather Map New forecast layout! Learn more

10-Day Weather Forecast

Advertisements
Track Severe Weather on mobile